sensor_id;sensor_type;location;lat;lon;timestamp;P1;durP1;ratioP1;P2;durP2;ratioP2
44046;SDS011;29713;-33.888;151.150;2022-09-09T00:06:59;1.47;;;0.77;;
44046;SDS011;29713;-33.888;151.150;2022-09-09T00:09:53;1.63;;;0.93;;
44046;SDS011;29713;-33.888;151.150;2022-09-09T00:12:43;1.13;;;0.90;;
44046;SDS011;29713;-33.888;151.150;2022-09-09T00:21:13;4.13;;;1.00;;
44046;SDS011;29713;-33.888;151.150;2022-09-09T00:23:47;2.47;;;1.00;;
44046;SDS011;29713;-33.888;151.150;2022-09-09T00:31:50;1.77;;;0.90;;
44046;SDS011;29713;-33.888;151.150;2022-09-09T00:34:26;1.53;;;0.80;;
44046;SDS011;29713;-33.888;151.150;2022-09-09T00:36:55;3.87;;;1.00;;
44046;SDS011;29713;-33.888;151.150;2022-09-09T00:42:23;1.63;;;1.00;;
44046;SDS011;29713;-33.888;151.150;2022-09-09T00:47:55;1.70;;;1.20;;
44046;SDS011;29713;-33.888;151.150;2022-09-09T00:56:25;2.30;;;1.00;;
44046;SDS011;29713;-33.888;151.150;2022-09-09T01:01:53;2.17;;;0.83;;
44046;SDS011;29713;-33.888;151.150;2022-09-09T01:04:24;1.13;;;0.80;;
44046;SDS011;29713;-33.888;151.150;2022-09-09T01:07:03;1.97;;;0.90;;
44046;SDS011;29713;-33.888;151.150;2022-09-09T01:12:16;1.90;;;1.00;;
44046;SDS011;29713;-33.888;151.150;2022-09-09T01:14:51;2.53;;;1.03;;
44046;SDS011;29713;-33.888;151.150;2022-09-09T01:17:31;1.90;;;0.60;;
44046;SDS011;29713;-33.888;151.150;2022-09-09T01:20:12;2.53;;;0.80;;
44046;SDS011;29713;-33.888;151.150;2022-09-09T01:22:51;1.77;;;0.60;;
44046;SDS011;29713;-33.888;151.150;2022-09-09T01:28:12;0.75;;;0.65;;
44046;SDS011;29713;-33.888;151.150;2022-09-09T01:30:45;3.17;;;0.73;;
44046;SDS011;29713;-33.888;151.150;2022-09-09T01:33:14;0.85;;;0.65;;
44046;SDS011;29713;-33.888;151.150;2022-09-09T01:35:46;0.65;;;0.50;;
44046;SDS011;29713;-33.888;151.150;2022-09-09T01:38:16;1.85;;;0.80;;
44046;SDS011;29713;-33.888;151.150;2022-09-09T01:40:44;1.33;;;0.73;;
44046;SDS011;29713;-33.888;151.150;2022-09-09T01:43:11;0.50;;;0.50;;
44046;SDS011;29713;-33.888;151.150;2022-09-09T01:45:39;1.63;;;0.70;;
44046;SDS011;29713;-33.888;151.150;2022-09-09T01:48:09;1.10;;;0.60;;
44046;SDS011;29713;-33.888;151.150;2022-09-09T01:50:36;1.77;;;0.80;;
44046;SDS011;29713;-33.888;151.150;2022-09-09T01:53:21;0.90;;;0.70;;
44046;SDS011;29713;-33.888;151.150;2022-09-09T02:01:50;1.48;;;0.68;;
44046;SDS011;29713;-33.888;151.150;2022-09-09T02:04:52;1.27;;;0.57;;
44046;SDS011;29713;-33.888;151.150;2022-09-09T02:12:53;0.40;;;0.40;;
44046;SDS011;29713;-33.888;151.150;2022-09-09T02:18:27;1.85;;;0.57;;
44046;SDS011;29713;-33.888;151.150;2022-09-09T02:21:00;0.30;;;0.30;;
44046;SDS011;29713;-33.888;151.150;2022-09-09T02:23:29;0.98;;;0.50;;
44046;SDS011;29713;-33.888;151.150;2022-09-09T02:25:58;0.80;;;0.40;;
44046;SDS011;29713;-33.888;151.150;2022-09-09T02:28:26;2.28;;;0.55;;
44046;SDS011;29713;-33.888;151.150;2022-09-09T02:30:57;0.60;;;0.40;;
44046;SDS011;29713;-33.888;151.150;2022-09-09T02:33:26;1.00;;;0.50;;
44046;SDS011;29713;-33.888;151.150;2022-09-09T02:35:56;0.50;;;0.50;;
44046;SDS011;29713;-33.888;151.150;2022-09-09T02:38:29;3.30;;;0.55;;
44046;SDS011;29713;-33.888;151.150;2022-09-09T02:41:01;0.55;;;0.38;;
44046;SDS011;29713;-33.888;151.150;2022-09-09T02:43:33;0.75;;;0.57;;
44046;SDS011;29713;-33.888;151.150;2022-09-09T02:49:09;1.88;;;0.50;;
44046;SDS011;29713;-33.888;151.150;2022-09-09T02:52:13;0.75;;;0.30;;
44046;SDS011;29713;-33.888;151.150;2022-09-09T02:54:42;0.60;;;0.40;;
44046;SDS011;29713;-33.888;151.150;2022-09-09T02:57:14;0.73;;;0.50;;
44046;SDS011;29713;-33.888;151.150;2022-09-09T02:59:49;0.63;;;0.45;;
44046;SDS011;29713;-33.888;151.150;2022-09-09T03:02:20;1.38;;;0.30;;
44046;SDS011;29713;-33.888;151.150;2022-09-09T03:04:47;0.40;;;0.30;;
44046;SDS011;29713;-33.888;151.150;2022-09-09T03:07:17;0.28;;;0.28;;
44046;SDS011;29713;-33.888;151.150;2022-09-09T03:09:45;0.65;;;0.40;;
44046;SDS011;29713;-33.888;151.150;2022-09-09T03:12:13;0.55;;;0.45;;
44046;SDS011;29713;-33.888;151.150;2022-09-09T03:14:41;0.20;;;0.20;;
44046;SDS011;29713;-33.888;151.150;2022-09-09T03:17:10;0.73;;;0.52;;
44046;SDS011;29713;-33.888;151.150;2022-09-09T03:19:38;0.60;;;0.60;;
44046;SDS011;29713;-33.888;151.150;2022-09-09T03:22:05;0.30;;;0.30;;
44046;SDS011;29713;-33.888;151.150;2022-09-09T03:24:35;0.68;;;0.30;;
44046;SDS011;29713;-33.888;151.150;2022-09-09T03:27:02;0.55;;;0.30;;
44046;SDS011;29713;-33.888;151.150;2022-09-09T03:29:30;0.63;;;0.63;;
44046;SDS011;29713;-33.888;151.150;2022-09-09T03:31:58;0.82;;;0.43;;
44046;SDS011;29713;-33.888;151.150;2022-09-09T03:34:25;1.27;;;0.40;;
44046;SDS011;29713;-33.888;151.150;2022-09-09T03:36:52;0.68;;;0.40;;
44046;SDS011;29713;-33.888;151.150;2022-09-09T03:39:21;0.85;;;0.47;;
44046;SDS011;29713;-33.888;151.150;2022-09-09T03:41:48;1.27;;;0.50;;
44046;SDS011;29713;-33.888;151.150;2022-09-09T03:44:15;0.50;;;0.50;;
44046;SDS011;29713;-33.888;151.150;2022-09-09T03:46:42;0.50;;;0.45;;
44046;SDS011;29713;-33.888;151.150;2022-09-09T03:49:10;1.25;;;0.40;;
44046;SDS011;29713;-33.888;151.150;2022-09-09T03:51:37;0.32;;;0.30;;
44046;SDS011;29713;-33.888;151.150;2022-09-09T03:54:06;0.75;;;0.32;;
44046;SDS011;29713;-33.888;151.150;2022-09-09T03:56:36;0.82;;;0.60;;
44046;SDS011;29713;-33.888;151.150;2022-09-09T03:59:03;2.30;;;0.50;;
44046;SDS011;29713;-33.888;151.150;2022-09-09T04:01:31;1.92;;;0.68;;
44046;SDS011;29713;-33.888;151.150;2022-09-09T04:03:58;0.40;;;0.20;;
44046;SDS011;29713;-33.888;151.150;2022-09-09T04:06:26;1.77;;;0.38;;
44046;SDS011;29713;-33.888;151.150;2022-09-09T04:08:55;0.55;;;0.40;;
44046;SDS011;29713;-33.888;151.150;2022-09-09T04:11:22;0.40;;;0.38;;
44046;SDS011;29713;-33.888;151.150;2022-09-09T04:13:50;1.08;;;0.50;;
44046;SDS011;29713;-33.888;151.150;2022-09-09T04:16:17;0.88;;;0.50;;
44046;SDS011;29713;-33.888;151.150;2022-09-09T04:18:45;1.95;;;0.52;;
44046;SDS011;29713;-33.888;151.150;2022-09-09T04:21:13;0.57;;;0.40;;
44046;SDS011;29713;-33.888;151.150;2022-09-09T04:23:41;0.93;;;0.50;;
44046;SDS011;29713;-33.888;151.150;2022-09-09T04:26:08;0.45;;;0.45;;
44046;SDS011;29713;-33.888;151.150;2022-09-09T04:28:36;0.93;;;0.50;;
44046;SDS011;29713;-33.888;151.150;2022-09-09T04:31:04;0.95;;;0.32;;
44046;SDS011;29713;-33.888;151.150;2022-09-09T04:33:34;1.20;;;0.60;;
44046;SDS011;29713;-33.888;151.150;2022-09-09T04:36:04;1.25;;;0.55;;
44046;SDS011;29713;-33.888;151.150;2022-09-09T04:38:31;0.43;;;0.30;;
44046;SDS011;29713;-33.888;151.150;2022-09-09T04:40:58;0.50;;;0.40;;
44046;SDS011;29713;-33.888;151.150;2022-09-09T04:43:26;0.70;;;0.40;;
44046;SDS011;29713;-33.888;151.150;2022-09-09T04:45:56;0.43;;;0.30;;
44046;SDS011;29713;-33.888;151.150;2022-09-09T04:48:24;0.60;;;0.43;;
44046;SDS011;29713;-33.888;151.150;2022-09-09T04:50:59;1.25;;;0.40;;
44046;SDS011;29713;-33.888;151.150;2022-09-09T04:53:29;0.55;;;0.30;;
44046;SDS011;29713;-33.888;151.150;2022-09-09T04:56:06;1.20;;;0.40;;
44046;SDS011;29713;-33.888;151.150;2022-09-09T04:58:35;1.05;;;0.45;;
44046;SDS011;29713;-33.888;151.150;2022-09-09T05:01:04;1.23;;;0.60;;
44046;SDS011;29713;-33.888;151.150;2022-09-09T05:03:33;0.30;;;0.30;;
44046;SDS011;29713;-33.888;151.150;2022-09-09T05:06:04;0.88;;;0.30;;
44046;SDS011;29713;-33.888;151.150;2022-09-09T05:08:38;0.75;;;0.70;;
44046;SDS011;29713;-33.888;151.150;2022-09-09T05:11:17;0.50;;;0.50;;
44046;SDS011;29713;-33.888;151.150;2022-09-09T05:13:52;0.52;;;0.40;;
44046;SDS011;29713;-33.888;151.150;2022-09-09T05:16:20;0.85;;;0.50;;
44046;SDS011;29713;-33.888;151.150;2022-09-09T05:18:48;1.15;;;0.57;;
44046;SDS011;29713;-33.888;151.150;2022-09-09T05:21:17;1.08;;;0.80;;
44046;SDS011;29713;-33.888;151.150;2022-09-09T05:23:45;0.52;;;0.52;;
44046;SDS011;29713;-33.888;151.150;2022-09-09T05:26:14;1.35;;;0.65;;
44046;SDS011;29713;-33.888;151.150;2022-09-09T05:28:43;1.10;;;0.60;;
44046;SDS011;29713;-33.888;151.150;2022-09-09T05:31:11;1.10;;;0.43;;
44046;SDS011;29713;-33.888;151.150;2022-09-09T05:33:41;1.55;;;0.30;;
44046;SDS011;29713;-33.888;151.150;2022-09-09T05:36:12;0.28;;;0.28;;
44046;SDS011;29713;-33.888;151.150;2022-09-09T05:38:44;0.43;;;0.30;;
44046;SDS011;29713;-33.888;151.150;2022-09-09T05:41:11;1.13;;;0.30;;
44046;SDS011;29713;-33.888;151.150;2022-09-09T05:43:43;0.55;;;0.40;;
44046;SDS011;29713;-33.888;151.150;2022-09-09T05:46:13;2.38;;;0.40;;
44046;SDS011;29713;-33.888;151.150;2022-09-09T05:48:43;3.25;;;0.90;;
44046;SDS011;29713;-33.888;151.150;2022-09-09T05:51:17;4.88;;;1.20;;
44046;SDS011;29713;-33.888;151.150;2022-09-09T05:53:47;3.80;;;1.27;;
44046;SDS011;29713;-33.888;151.150;2022-09-09T05:56:22;4.18;;;1.63;;
44046;SDS011;29713;-33.888;151.150;2022-09-09T05:58:54;3.47;;;1.30;;
44046;SDS011;29713;-33.888;151.150;2022-09-09T06:01:26;2.70;;;1.00;;
44046;SDS011;29713;-33.888;151.150;2022-09-09T06:03:55;1.10;;;0.57;;
44046;SDS011;29713;-33.888;151.150;2022-09-09T06:06:27;0.80;;;0.63;;
44046;SDS011;29713;-33.888;151.150;2022-09-09T06:09:05;0.90;;;0.55;;
44046;SDS011;29713;-33.888;151.150;2022-09-09T06:11:36;0.88;;;0.50;;
44046;SDS011;29713;-33.888;151.150;2022-09-09T06:14:05;0.50;;;0.50;;
44046;SDS011;29713;-33.888;151.150;2022-09-09T06:16:33;0.82;;;0.50;;
44046;SDS011;29713;-33.888;151.150;2022-09-09T06:19:03;0.52;;;0.43;;
44046;SDS011;29713;-33.888;151.150;2022-09-09T06:21:31;4.93;;;1.65;;
44046;SDS011;29713;-33.888;151.150;2022-09-09T06:24:02;7.97;;;1.58;;
44046;SDS011;29713;-33.888;151.150;2022-09-09T06:26:31;3.13;;;1.02;;
44046;SDS011;29713;-33.888;151.150;2022-09-09T06:28:59;3.88;;;0.60;;
44046;SDS011;29713;-33.888;151.150;2022-09-09T06:31:29;1.67;;;0.70;;
44046;SDS011;29713;-33.888;151.150;2022-09-09T06:33:59;1.10;;;0.40;;
44046;SDS011;29713;-33.888;151.150;2022-09-09T06:36:29;3.30;;;0.60;;
44046;SDS011;29713;-33.888;151.150;2022-09-09T06:39:02;1.30;;;0.68;;
44046;SDS011;29713;-33.888;151.150;2022-09-09T06:41:31;2.60;;;0.75;;
44046;SDS011;29713;-33.888;151.150;2022-09-09T06:43:59;2.50;;;0.80;;
44046;SDS011;29713;-33.888;151.150;2022-09-09T06:46:27;0.85;;;0.80;;
44046;SDS011;29713;-33.888;151.150;2022-09-09T06:48:57;1.02;;;0.77;;
44046;SDS011;29713;-33.888;151.150;2022-09-09T06:51:27;0.95;;;0.70;;
44046;SDS011;29713;-33.888;151.150;2022-09-09T06:53:58;3.28;;;1.00;;
44046;SDS011;29713;-33.888;151.150;2022-09-09T06:56:28;1.48;;;0.77;;
44046;SDS011;29713;-33.888;151.150;2022-09-09T06:59:01;2.45;;;0.88;;
44046;SDS011;29713;-33.888;151.150;2022-09-09T07:01:31;1.27;;;1.10;;
44046;SDS011;29713;-33.888;151.150;2022-09-09T07:04:01;2.30;;;1.33;;
44046;SDS011;29713;-33.888;151.150;2022-09-09T07:06:30;4.13;;;1.02;;
44046;SDS011;29713;-33.888;151.150;2022-09-09T07:09:00;3.05;;;1.30;;
44046;SDS011;29713;-33.888;151.150;2022-09-09T07:11:31;4.20;;;1.67;;
44046;SDS011;29713;-33.888;151.150;2022-09-09T07:14:00;5.97;;;1.80;;
44046;SDS011;29713;-33.888;151.150;2022-09-09T07:16:28;5.20;;;2.38;;
44046;SDS011;29713;-33.888;151.150;2022-09-09T07:18:58;4.00;;;1.80;;
44046;SDS011;29713;-33.888;151.150;2022-09-09T07:21:28;5.38;;;2.28;;
44046;SDS011;29713;-33.888;151.150;2022-09-09T07:23:56;4.88;;;2.42;;
44046;SDS011;29713;-33.888;151.150;2022-09-09T07:26:25;6.78;;;2.33;;
44046;SDS011;29713;-33.888;151.150;2022-09-09T07:28:54;3.22;;;2.10;;
44046;SDS011;29713;-33.888;151.150;2022-09-09T07:31:23;5.78;;;2.38;;
44046;SDS011;29713;-33.888;151.150;2022-09-09T07:33:51;6.07;;;2.10;;
44046;SDS011;29713;-33.888;151.150;2022-09-09T07:36:20;7.10;;;2.60;;
44046;SDS011;29713;-33.888;151.150;2022-09-09T07:39:08;3.25;;;2.08;;
44046;SDS011;29713;-33.888;151.150;2022-09-09T07:41:42;3.35;;;1.88;;
44046;SDS011;29713;-33.888;151.150;2022-09-09T07:44:12;6.75;;;1.92;;
44046;SDS011;29713;-33.888;151.150;2022-09-09T07:46:41;3.90;;;1.75;;
44046;SDS011;29713;-33.888;151.150;2022-09-09T07:49:10;6.70;;;2.28;;
44046;SDS011;29713;-33.888;151.150;2022-09-09T07:51:38;5.28;;;2.42;;
44046;SDS011;29713;-33.888;151.150;2022-09-09T07:54:09;4.90;;;1.90;;
44046;SDS011;29713;-33.888;151.150;2022-09-09T07:56:43;5.95;;;2.00;;
44046;SDS011;29713;-33.888;151.150;2022-09-09T07:59:10;4.53;;;2.00;;
44046;SDS011;29713;-33.888;151.150;2022-09-09T08:01:40;5.18;;;1.98;;
44046;SDS011;29713;-33.888;151.150;2022-09-09T08:04:20;9.70;;;2.47;;
44046;SDS011;29713;-33.888;151.150;2022-09-09T08:06:50;5.47;;;2.30;;
44046;SDS011;29713;-33.888;151.150;2022-09-09T08:09:19;6.53;;;2.22;;
44046;SDS011;29713;-33.888;151.150;2022-09-09T08:11:47;8.00;;;2.30;;
44046;SDS011;29713;-33.888;151.150;2022-09-09T08:14:14;4.70;;;2.13;;
44046;SDS011;29713;-33.888;151.150;2022-09-09T08:16:43;7.50;;;2.47;;
44046;SDS011;29713;-33.888;151.150;2022-09-09T08:19:11;4.35;;;1.98;;
44046;SDS011;29713;-33.888;151.150;2022-09-09T08:21:41;7.80;;;2.45;;
44046;SDS011;29713;-33.888;151.150;2022-09-09T08:24:10;3.97;;;2.17;;
44046;SDS011;29713;-33.888;151.150;2022-09-09T08:26:44;7.57;;;2.75;;
44046;SDS011;29713;-33.888;151.150;2022-09-09T08:29:16;5.25;;;2.42;;
44046;SDS011;29713;-33.888;151.150;2022-09-09T08:31:48;5.35;;;2.75;;
44046;SDS011;29713;-33.888;151.150;2022-09-09T08:34:20;5.43;;;2.80;;
44046;SDS011;29713;-33.888;151.150;2022-09-09T08:36:48;6.47;;;2.60;;
44046;SDS011;29713;-33.888;151.150;2022-09-09T08:39:17;8.18;;;3.22;;
44046;SDS011;29713;-33.888;151.150;2022-09-09T08:53:05;8.15;;;2.60;;
44046;SDS011;29713;-33.888;151.150;2022-09-09T08:55:47;7.38;;;3.20;;
44046;SDS011;29713;-33.888;151.150;2022-09-09T08:58:18;5.57;;;2.83;;
44046;SDS011;29713;-33.888;151.150;2022-09-09T09:04:02;5.30;;;2.40;;
44046;SDS011;29713;-33.888;151.150;2022-09-09T09:12:29;4.95;;;2.40;;
44046;SDS011;29713;-33.888;151.150;2022-09-09T09:15:01;3.77;;;2.00;;
44046;SDS011;29713;-33.888;151.150;2022-09-09T09:17:35;2.72;;;1.88;;
44046;SDS011;29713;-33.888;151.150;2022-09-09T09:20:05;5.03;;;2.33;;
44046;SDS011;29713;-33.888;151.150;2022-09-09T09:22:40;4.93;;;2.03;;
44046;SDS011;29713;-33.888;151.150;2022-09-09T09:25:39;2.60;;;1.70;;
44046;SDS011;29713;-33.888;151.150;2022-09-09T09:30:37;3.13;;;1.70;;
44046;SDS011;29713;-33.888;151.150;2022-09-09T09:33:15;1.98;;;1.73;;
44046;SDS011;29713;-33.888;151.150;2022-09-09T09:35:54;2.72;;;1.63;;
44046;SDS011;29713;-33.888;151.150;2022-09-09T09:38:22;4.35;;;1.88;;
44046;SDS011;29713;-33.888;151.150;2022-09-09T09:40:53;1.65;;;1.52;;
44046;SDS011;29713;-33.888;151.150;2022-09-09T09:43:30;2.60;;;1.70;;
44046;SDS011;29713;-33.888;151.150;2022-09-09T09:46:00;1.98;;;1.52;;
44046;SDS011;29713;-33.888;151.150;2022-09-09T09:48:30;2.85;;;1.60;;
44046;SDS011;29713;-33.888;151.150;2022-09-09T09:50:59;2.30;;;1.40;;
44046;SDS011;29713;-33.888;151.150;2022-09-09T09:53:34;2.92;;;1.60;;
44046;SDS011;29713;-33.888;151.150;2022-09-09T09:56:06;2.30;;;1.30;;
44046;SDS011;29713;-33.888;151.150;2022-09-09T10:04:14;1.75;;;1.40;;
44046;SDS011;29713;-33.888;151.150;2022-09-09T10:06:44;2.35;;;1.38;;
44046;SDS011;29713;-33.888;151.150;2022-09-09T10:12:19;3.72;;;1.20;;
44046;SDS011;29713;-33.888;151.150;2022-09-09T10:17:42;2.03;;;1.20;;
44046;SDS011;29713;-33.888;151.150;2022-09-09T10:20:25;2.03;;;1.00;;
44046;SDS011;29713;-33.888;151.150;2022-09-09T10:32:02;1.60;;;1.20;;
44046;SDS011;29713;-33.888;151.150;2022-09-09T10:34:54;4.82;;;1.70;;
44046;SDS011;29713;-33.888;151.150;2022-09-09T10:48:58;1.20;;;0.93;;
44046;SDS011;29713;-33.888;151.150;2022-09-09T10:55:03;1.10;;;1.00;;
44046;SDS011;29713;-33.888;151.150;2022-09-09T10:57:44;1.15;;;0.88;;
44046;SDS011;29713;-33.888;151.150;2022-09-09T11:00:18;0.80;;;0.70;;
44046;SDS011;29713;-33.888;151.150;2022-09-09T11:05:49;1.33;;;0.90;;
44046;SDS011;29713;-33.888;151.150;2022-09-09T11:08:27;1.67;;;1.17;;
44046;SDS011;29713;-33.888;151.150;2022-09-09T11:21:57;2.75;;;1.60;;
44046;SDS011;29713;-33.888;151.150;2022-09-09T11:24:38;2.10;;;1.40;;
44046;SDS011;29713;-33.888;151.150;2022-09-09T11:30:15;1.48;;;1.38;;
44046;SDS011;29713;-33.888;151.150;2022-09-09T11:41:02;2.77;;;1.10;;
44046;SDS011;29713;-33.888;151.150;2022-09-09T11:46:05;2.60;;;2.40;;
44046;SDS011;29713;-33.888;151.150;2022-09-09T11:48:35;3.43;;;2.43;;
44046;SDS011;29713;-33.888;151.150;2022-09-09T11:59:20;1.63;;;1.20;;
44046;SDS011;29713;-33.888;151.150;2022-09-09T12:01:50;1.50;;;0.90;;
44046;SDS011;29713;-33.888;151.150;2022-09-09T12:07:39;1.00;;;0.70;;
44046;SDS011;29713;-33.888;151.150;2022-09-09T12:10:40;0.80;;;0.77;;
44046;SDS011;29713;-33.888;151.150;2022-09-09T12:12:52;0.80;;;0.60;;
44046;SDS011;29713;-33.888;151.150;2022-09-09T12:15:24;0.57;;;0.57;;
44046;SDS011;29713;-33.888;151.150;2022-09-09T12:17:55;0.80;;;0.70;;
44046;SDS011;29713;-33.888;151.150;2022-09-09T12:20:31;1.90;;;1.40;;
44046;SDS011;29713;-33.888;151.150;2022-09-09T12:26:05;1.00;;;0.90;;
44046;SDS011;29713;-33.888;151.150;2022-09-09T12:28:49;1.33;;;1.10;;
44046;SDS011;29713;-33.888;151.150;2022-09-09T12:31:27;2.17;;;1.17;;
44046;SDS011;29713;-33.888;151.150;2022-09-09T12:39:55;0.77;;;0.70;;
44046;SDS011;29713;-33.888;151.150;2022-09-09T12:42:24;0.90;;;0.70;;
44046;SDS011;29713;-33.888;151.150;2022-09-09T12:44:56;0.50;;;0.50;;
44046;SDS011;29713;-33.888;151.150;2022-09-09T12:48:26;0.50;;;0.40;;
44046;SDS011;29713;-33.888;151.150;2022-09-09T12:50:28;0.60;;;0.40;;
44046;SDS011;29713;-33.888;151.150;2022-09-09T12:52:58;1.13;;;0.60;;
44046;SDS011;29713;-33.888;151.150;2022-09-09T12:55:49;0.97;;;0.47;;
44046;SDS011;29713;-33.888;151.150;2022-09-09T12:58:28;0.90;;;0.60;;
44046;SDS011;29713;-33.888;151.150;2022-09-09T13:01:00;0.83;;;0.30;;
44046;SDS011;29713;-33.888;151.150;2022-09-09T13:03:31;0.60;;;0.60;;
44046;SDS011;29713;-33.888;151.150;2022-09-09T13:06:10;0.50;;;0.40;;
44046;SDS011;29713;-33.888;151.150;2022-09-09T13:08:40;1.10;;;0.70;;
44046;SDS011;29713;-33.888;151.150;2022-09-09T13:11:10;1.50;;;0.60;;
44046;SDS011;29713;-33.888;151.150;2022-09-09T13:13:41;0.50;;;0.50;;
44046;SDS011;29713;-33.888;151.150;2022-09-09T13:16:20;0.70;;;0.50;;
44046;SDS011;29713;-33.888;151.150;2022-09-09T13:18:51;0.27;;;0.27;;
44046;SDS011;29713;-33.888;151.150;2022-09-09T13:21:19;0.40;;;0.30;;
44046;SDS011;29713;-33.888;151.150;2022-09-09T13:23:56;0.43;;;0.30;;
44046;SDS011;29713;-33.888;151.150;2022-09-09T13:26:28;0.20;;;0.20;;
44046;SDS011;29713;-33.888;151.150;2022-09-09T13:29:07;0.60;;;0.50;;
44046;SDS011;29713;-33.888;151.150;2022-09-09T13:31:43;0.93;;;0.40;;
44046;SDS011;29713;-33.888;151.150;2022-09-09T13:34:30;0.40;;;0.20;;
44046;SDS011;29713;-33.888;151.150;2022-09-09T13:37:00;0.40;;;0.20;;
44046;SDS011;29713;-33.888;151.150;2022-09-09T13:39:35;0.40;;;0.20;;
44046;SDS011;29713;-33.888;151.150;2022-09-09T13:42:03;1.40;;;0.20;;
44046;SDS011;29713;-33.888;151.150;2022-09-09T13:44:41;0.10;;;0.10;;
44046;SDS011;29713;-33.888;151.150;2022-09-09T13:49:39;0.53;;;0.20;;
44046;SDS011;29713;-33.888;151.150;2022-09-09T13:52:10;0.40;;;0.20;;
44046;SDS011;29713;-33.888;151.150;2022-09-09T13:54:39;0.50;;;0.20;;
44046;SDS011;29713;-33.888;151.150;2022-09-09T13:57:14;0.87;;;0.30;;
44046;SDS011;29713;-33.888;151.150;2022-09-09T13:59:46;1.23;;;0.30;;
44046;SDS011;29713;-33.888;151.150;2022-09-09T14:02:14;0.20;;;0.20;;
44046;SDS011;29713;-33.888;151.150;2022-09-09T14:04:42;0.60;;;0.20;;
44046;SDS011;29713;-33.888;151.150;2022-09-09T14:07:14;0.23;;;0.20;;
44046;SDS011;29713;-33.888;151.150;2022-09-09T14:09:43;2.43;;;0.27;;
44046;SDS011;29713;-33.888;151.150;2022-09-09T14:12:15;0.50;;;0.20;;
44046;SDS011;29713;-33.888;151.150;2022-09-09T14:14:43;0.33;;;0.30;;
44046;SDS011;29713;-33.888;151.150;2022-09-09T14:17:10;2.10;;;0.47;;
44046;SDS011;29713;-33.888;151.150;2022-09-09T14:19:38;0.93;;;0.20;;
44046;SDS011;29713;-33.888;151.150;2022-09-09T14:22:05;0.20;;;0.20;;
44046;SDS011;29713;-33.888;151.150;2022-09-09T14:24:32;0.10;;;0.10;;
44046;SDS011;29713;-33.888;151.150;2022-09-09T14:26:59;0.10;;;0.10;;
44046;SDS011;29713;-33.888;151.150;2022-09-09T14:29:27;0.10;;;0.10;;
44046;SDS011;29713;-33.888;151.150;2022-09-09T14:31:54;0.47;;;0.40;;
44046;SDS011;29713;-33.888;151.150;2022-09-09T14:34:21;0.10;;;0.10;;
44046;SDS011;29713;-33.888;151.150;2022-09-09T14:36:49;0.50;;;0.20;;
44046;SDS011;29713;-33.888;151.150;2022-09-09T14:39:16;0.30;;;0.17;;
44046;SDS011;29713;-33.888;151.150;2022-09-09T14:41:45;0.37;;;0.17;;
44046;SDS011;29713;-33.888;151.150;2022-09-09T14:44:12;0.10;;;0.10;;
44046;SDS011;29713;-33.888;151.150;2022-09-09T14:46:41;0.20;;;0.20;;
44046;SDS011;29713;-33.888;151.150;2022-09-09T14:49:08;0.23;;;0.20;;
44046;SDS011;29713;-33.888;151.150;2022-09-09T14:51:36;2.10;;;0.13;;
44046;SDS011;29713;-33.888;151.150;2022-09-09T14:54:03;0.10;;;0.10;;
44046;SDS011;29713;-33.888;151.150;2022-09-09T14:56:32;0.93;;;0.20;;
44046;SDS011;29713;-33.888;151.150;2022-09-09T14:59:00;0.77;;;0.20;;
44046;SDS011;29713;-33.888;151.150;2022-09-09T15:01:28;2.97;;;0.27;;
44046;SDS011;29713;-33.888;151.150;2022-09-09T15:04:02;0.17;;;0.10;;
44046;SDS011;29713;-33.888;151.150;2022-09-09T15:06:31;0.60;;;0.17;;
44046;SDS011;29713;-33.888;151.150;2022-09-09T15:09:02;0.10;;;0.10;;
44046;SDS011;29713;-33.888;151.150;2022-09-09T15:11:30;0.20;;;0.20;;
44046;SDS011;29713;-33.888;151.150;2022-09-09T15:14:03;1.00;;;0.20;;
44046;SDS011;29713;-33.888;151.150;2022-09-09T15:16:31;0.40;;;0.17;;
44046;SDS011;29713;-33.888;151.150;2022-09-09T15:19:00;0.17;;;0.17;;
44046;SDS011;29713;-33.888;151.150;2022-09-09T15:21:32;0.00;;;0.00;;
44046;SDS011;29713;-33.888;151.150;2022-09-09T15:24:01;0.20;;;0.10;;
44046;SDS011;29713;-33.888;151.150;2022-09-09T15:26:29;0.20;;;0.10;;
44046;SDS011;29713;-33.888;151.150;2022-09-09T15:28:57;0.30;;;0.20;;
44046;SDS011;29713;-33.888;151.150;2022-09-09T15:31:25;0.30;;;0.20;;
44046;SDS011;29713;-33.888;151.150;2022-09-09T15:33:55;0.20;;;0.20;;
44046;SDS011;29713;-33.888;151.150;2022-09-09T15:38:59;0.10;;;0.10;;
44046;SDS011;29713;-33.888;151.150;2022-09-09T15:41:27;0.20;;;0.13;;
44046;SDS011;29713;-33.888;151.150;2022-09-09T15:43:57;0.40;;;0.07;;
44046;SDS011;29713;-33.888;151.150;2022-09-09T15:51:32;0.47;;;0.10;;
44046;SDS011;29713;-33.888;151.150;2022-09-09T15:53:59;0.20;;;0.20;;
44046;SDS011;29713;-33.888;151.150;2022-09-09T15:56:27;0.60;;;0.40;;
44046;SDS011;29713;-33.888;151.150;2022-09-09T15:59:01;0.13;;;0.13;;
44046;SDS011;29713;-33.888;151.150;2022-09-09T16:01:29;0.20;;;0.20;;
44046;SDS011;29713;-33.888;151.150;2022-09-09T16:03:57;0.47;;;0.10;;
44046;SDS011;29713;-33.888;151.150;2022-09-09T16:06:26;0.30;;;0.10;;
44046;SDS011;29713;-33.888;151.150;2022-09-09T16:08:55;0.13;;;0.10;;
44046;SDS011;29713;-33.888;151.150;2022-09-09T16:11:33;0.10;;;0.10;;
44046;SDS011;29713;-33.888;151.150;2022-09-09T16:14:02;0.10;;;0.10;;
44046;SDS011;29713;-33.888;151.150;2022-09-09T16:16:29;0.20;;;0.20;;
44046;SDS011;29713;-33.888;151.150;2022-09-09T16:18:58;0.20;;;0.20;;
44046;SDS011;29713;-33.888;151.150;2022-09-09T16:21:31;0.70;;;0.40;;
44046;SDS011;29713;-33.888;151.150;2022-09-09T16:24:01;0.17;;;0.13;;
44046;SDS011;29713;-33.888;151.150;2022-09-09T16:26:31;0.20;;;0.10;;
44046;SDS011;29713;-33.888;151.150;2022-09-09T16:28:59;0.43;;;0.27;;
44046;SDS011;29713;-33.888;151.150;2022-09-09T16:31:28;0.70;;;0.20;;
44046;SDS011;29713;-33.888;151.150;2022-09-09T16:33:57;0.20;;;0.10;;
44046;SDS011;29713;-33.888;151.150;2022-09-09T16:36:28;0.50;;;0.30;;
44046;SDS011;29713;-33.888;151.150;2022-09-09T16:38:57;0.10;;;0.10;;
44046;SDS011;29713;-33.888;151.150;2022-09-09T16:41:27;1.50;;;0.27;;
44046;SDS011;29713;-33.888;151.150;2022-09-09T16:43:56;0.10;;;0.10;;
44046;SDS011;29713;-33.888;151.150;2022-09-09T16:46:26;0.10;;;0.10;;
44046;SDS011;29713;-33.888;151.150;2022-09-09T16:48:58;0.33;;;0.20;;
44046;SDS011;29713;-33.888;151.150;2022-09-09T16:51:28;1.50;;;0.10;;
44046;SDS011;29713;-33.888;151.150;2022-09-09T16:54:00;0.53;;;0.20;;
44046;SDS011;29713;-33.888;151.150;2022-09-09T16:56:29;0.20;;;0.10;;
44046;SDS011;29713;-33.888;151.150;2022-09-09T16:59:07;1.70;;;0.27;;
44046;SDS011;29713;-33.888;151.150;2022-09-09T17:01:37;0.93;;;0.30;;
44046;SDS011;29713;-33.888;151.150;2022-09-09T17:04:18;0.30;;;0.10;;
44046;SDS011;29713;-33.888;151.150;2022-09-09T17:06:49;0.20;;;0.20;;
44046;SDS011;29713;-33.888;151.150;2022-09-09T17:09:19;0.40;;;0.40;;
44046;SDS011;29713;-33.888;151.150;2022-09-09T17:11:48;0.30;;;0.30;;
44046;SDS011;29713;-33.888;151.150;2022-09-09T17:14:17;0.13;;;0.13;;
44046;SDS011;29713;-33.888;151.150;2022-09-09T17:16:45;0.73;;;0.20;;
44046;SDS011;29713;-33.888;151.150;2022-09-09T17:19:13;0.20;;;0.10;;
44046;SDS011;29713;-33.888;151.150;2022-09-09T17:21:40;0.17;;;0.17;;
44046;SDS011;29713;-33.888;151.150;2022-09-09T17:24:08;0.20;;;0.20;;